Mazatenango, Guatemala
Current Conditions -  °F | °C
As of 10:00 AM on Saturday 25 Oct 2014 (Local Time) from MGSJ Reporting Station
Overcast Overcast  
Wind Chill: 86°   Ceiling: 20000
Heat Index: 93°   Visibility: 6mi
Dew Point: 73°   Wind: 0mph
Humidity: 66%   Direction: NA
Pressure: 29.94"   Gusts: NA
Location:  14.31°N, 91.3°W
Report Text: MGSJ 251600Z 00000KT CAVOK 30/23 Q1014 A2994 FEW090 OVC200
Loading
Personal Weather Stations






























Interactive Weather Map
Tropical Storm Tracking
New forecast layout! Learn more

10-Day Weather Forecast

Advertisements
Track Severe Weather on mobile